createdAt,value
2019-04-16T00:02:36.451Z,94.30
2019-04-16T00:05:27.729Z,94.20
2019-04-16T00:08:26.531Z,94.30
2019-04-16T00:10:55.682Z,94.00
2019-04-16T00:13:29.410Z,93.80
2019-04-16T00:16:01.454Z,93.30
2019-04-16T00:18:31.513Z,93.30
2019-04-16T00:21:16.065Z,93.10
2019-04-16T00:24:08.271Z,93.20
2019-04-16T00:26:39.718Z,93.10
2019-04-16T00:29:09.897Z,93.10
2019-04-16T00:31:40.413Z,93.50
2019-04-16T00:34:13.444Z,93.70
2019-04-16T00:36:42.387Z,93.20
2019-04-16T00:39:13.521Z,93.00
2019-04-16T00:41:43.866Z,93.10
2019-04-16T00:44:14.121Z,92.70
2019-04-16T00:46:44.337Z,92.60
2019-04-16T00:49:14.509Z,93.20
2019-04-16T00:51:44.663Z,93.60
2019-04-16T00:54:14.885Z,93.70
2019-04-16T00:56:46.595Z,93.30
2019-04-16T00:59:16.866Z,92.90
2019-04-16T01:01:47.005Z,93.00
2019-04-16T01:04:17.194Z,93.60
2019-04-16T01:06:48.289Z,94.00
2019-04-16T01:09:18.468Z,93.70
2019-04-16T01:11:48.846Z,93.50
2019-04-16T01:14:19.969Z,94.00
2019-04-16T01:16:50.204Z,94.00
2019-04-16T01:19:20.341Z,93.80
2019-04-16T01:21:50.385Z,94.60
2019-04-16T01:24:21.149Z,94.40
2019-04-16T01:26:55.397Z,94.20
2019-04-16T01:29:25.296Z,94.70
2019-04-16T01:32:23.898Z,95.00
2019-04-16T01:35:09.933Z,95.40
2019-04-16T01:37:59.050Z,95.20
2019-04-16T01:40:34.925Z,95.40
2019-04-16T01:43:05.089Z,95.10
2019-04-16T01:45:35.319Z,94.80
2019-04-16T01:48:08.049Z,95.10
2019-04-16T01:50:37.234Z,95.50
2019-04-16T01:53:07.383Z,95.80
2019-04-16T01:55:37.524Z,95.90
2019-04-16T01:58:07.605Z,96.10
2019-04-16T02:00:39.240Z,96.70
2019-04-16T02:03:09.558Z,96.40
2019-04-16T02:05:42.261Z,96.30
2019-04-16T02:08:13.416Z,96.20
2019-04-16T02:10:43.741Z,96.10
2019-04-16T02:13:14.966Z,96.80
2019-04-16T02:15:45.666Z,96.80
2019-04-16T02:18:15.781Z,96.60
2019-04-16T02:20:46.066Z,96.80
2019-04-16T02:23:17.373Z,96.70
2019-04-16T02:25:48.519Z,96.30
2019-04-16T02:28:21.572Z,96.10
2019-04-16T02:30:51.524Z,96.00
2019-04-16T02:33:21.635Z,95.90
2019-04-16T02:35:51.895Z,95.80
2019-04-16T02:38:23.195Z,95.70
2019-04-16T02:40:53.523Z,96.20
2019-04-16T02:43:23.957Z,96.40
2019-04-16T02:45:58.387Z,96.20
2019-04-16T02:48:25.845Z,96.40
2019-04-16T02:51:05.370Z,96.40
2019-04-16T02:54:05.646Z,96.30
2019-04-16T02:57:02.855Z,95.90
2019-04-16T02:59:36.390Z,96.50
2019-04-16T03:02:31.323Z,96.70
2019-04-16T03:05:09.462Z,96.70
2019-04-16T03:07:39.642Z,97.00
2019-04-16T03:10:13.072Z,96.70
2019-04-16T03:12:41.793Z,96.80
2019-04-16T03:15:11.980Z,96.80
2019-04-16T03:17:46.287Z,96.80
2019-04-16T03:20:17.151Z,97.30
2019-04-16T03:22:47.299Z,96.90
2019-04-16T03:25:17.508Z,97.00
2019-04-16T03:27:47.738Z,96.60
2019-04-16T03:30:17.954Z,97.00
2019-04-16T03:32:49.924Z,97.10
2019-04-16T03:35:25.403Z,97.10
2019-04-16T03:37:51.965Z,96.70
2019-04-16T03:40:25.646Z,96.50
2019-04-16T03:42:58.964Z,97.00
2019-04-16T03:45:25.798Z,97.20
2019-04-16T03:47:55.874Z,97.00
2019-04-16T03:50:31.053Z,97.50
2019-04-16T03:52:58.047Z,97.50
2019-04-16T03:55:28.285Z,97.70
2019-04-16T03:57:58.404Z,97.80
2019-04-16T04:00:28.550Z,97.80
2019-04-16T04:02:58.786Z,97.60
2019-04-16T04:05:28.938Z,97.60
2019-04-16T04:07:59.131Z,97.70
2019-04-16T04:10:31.418Z,97.50
2019-04-16T04:13:04.667Z,97.90
2019-04-16T04:15:33.288Z,97.60
2019-04-16T04:18:03.517Z,97.80
2019-04-16T04:20:33.774Z,97.50
2019-04-16T04:23:04.107Z,97.90
2019-04-16T04:25:36.409Z,97.50
2019-04-16T04:28:06.639Z,97.50
2019-04-16T04:30:36.998Z,97.30
2019-04-16T04:33:08.823Z,97.60
2019-04-16T04:35:39.047Z,97.40
2019-04-16T04:38:09.419Z,97.30
2019-04-16T04:40:44.816Z,97.00
2019-04-16T04:43:11.500Z,96.70
2019-04-16T04:45:41.638Z,96.70
2019-04-16T04:48:12.275Z,96.60
2019-04-16T04:50:42.701Z,96.70
2019-04-16T04:53:17.787Z,96.60
2019-04-16T04:55:44.711Z,96.50
2019-04-16T04:58:14.968Z,96.10
2019-04-16T05:00:45.214Z,96.00
2019-04-16T05:03:26.082Z,95.80
2019-04-16T05:05:57.610Z,95.90
2019-04-16T05:08:28.663Z,95.40
2019-04-16T05:11:02.786Z,95.10
2019-04-16T05:13:31.401Z,95.00
2019-04-16T05:16:02.564Z,95.20
2019-04-16T05:18:33.213Z,94.60
2019-04-16T05:21:03.476Z,94.10
2019-04-16T05:23:33.551Z,94.10
2019-04-16T05:26:04.722Z,94.30
2019-04-16T05:28:35.685Z,93.90
2019-04-16T05:31:05.849Z,93.70
2019-04-16T05:33:37.565Z,93.30
2019-04-16T05:36:07.754Z,93.40
2019-04-16T05:38:37.861Z,92.90
2019-04-16T05:41:13.622Z,93.10
2019-04-16T05:43:39.838Z,92.60
2019-04-16T05:46:10.033Z,91.80
2019-04-16T05:48:40.262Z,92.00
2019-04-16T05:51:10.444Z,91.60
2019-04-16T05:53:42.137Z,91.10
2019-04-16T05:56:23.946Z,91.20
2019-04-16T05:58:53.653Z,90.30
2019-04-16T06:01:48.610Z,90.40
2019-04-16T06:04:18.796Z,89.80
2019-04-16T06:06:48.920Z,88.90
2019-04-16T06:09:19.075Z,87.60
2019-04-16T06:11:49.251Z,87.50
2019-04-16T06:14:28.686Z,86.50
2019-04-16T06:17:19.415Z,86.50
2019-04-16T06:20:01.428Z,85.60
2019-04-16T06:22:37.460Z,85.90
2019-04-16T06:25:25.435Z,84.30
2019-04-16T06:28:15.819Z,84.40
2019-04-16T06:30:57.415Z,83.60
2019-04-16T06:33:34.378Z,82.20
2019-04-16T06:36:26.373Z,81.20
2019-04-16T06:39:26.520Z,80.40
2019-04-16T06:42:14.347Z,79.20
2019-04-16T06:44:48.879Z,78.40
2019-04-16T06:47:41.803Z,76.80
2019-04-16T06:50:32.186Z,76.90
2019-04-16T06:53:08.890Z,75.50
2019-04-16T06:55:49.644Z,73.50
2019-04-16T06:58:50.809Z,73.10
2019-04-16T07:01:22.501Z,72.60
2019-04-16T07:04:00.589Z,67.90
2019-04-16T07:07:01.682Z,68.00
2019-04-16T07:09:46.031Z,64.70
2019-04-16T07:12:21.065Z,60.20
2019-04-16T07:14:51.541Z,60.10
2019-04-16T07:17:22.513Z,56.90
2019-04-16T07:19:52.898Z,60.40
2019-04-16T07:22:23.212Z,57.20
2019-04-16T07:24:57.558Z,58.40
2019-04-16T07:27:53.720Z,54.40
2019-04-16T07:30:38.286Z,53.90
2019-04-16T07:33:14.750Z,51.80
2019-04-16T07:35:50.378Z,49.50
2019-04-16T07:38:35.115Z,49.10
2019-04-16T07:41:21.993Z,48.70
2019-04-16T07:44:14.458Z,48.00
2019-04-16T07:46:56.079Z,49.60
2019-04-16T07:49:48.255Z,50.30
2019-04-16T07:52:49.230Z,47.60
2019-04-16T07:55:45.007Z,48.70
2019-04-16T07:58:15.226Z,47.00
2019-04-16T08:00:46.133Z,47.40
2019-04-16T08:03:16.318Z,46.50
2019-04-16T08:05:46.455Z,48.10
2019-04-16T08:08:17.741Z,47.50
2019-04-16T08:10:48.017Z,46.20
2019-04-16T08:13:19.999Z,48.10
2019-04-16T08:15:50.187Z,48.10
2019-04-16T08:18:20.486Z,46.70
2019-04-16T08:21:01.118Z,46.90
2019-04-16T08:23:43.397Z,46.00
2019-04-16T08:26:13.981Z,46.90
2019-04-16T08:28:44.269Z,46.80
2019-04-16T08:31:18.501Z,47.20
2019-04-16T08:33:48.650Z,47.90
2019-04-16T08:36:18.927Z,48.50
2019-04-16T08:38:49.070Z,46.00
2019-04-16T08:41:21.120Z,46.60
2019-04-16T08:43:51.269Z,45.60
2019-04-16T08:46:21.416Z,44.50
2019-04-16T08:48:54.287Z,44.80
2019-04-16T08:51:30.873Z,44.10
2019-04-16T08:53:56.466Z,42.00
2019-04-16T08:56:26.720Z,41.30
2019-04-16T08:59:00.893Z,43.40
2019-04-16T09:01:33.313Z,43.90
2019-04-16T09:04:06.579Z,42.70
2019-04-16T09:06:37.422Z,42.40
2019-04-16T09:09:27.907Z,41.80
2019-04-16T09:12:01.976Z,40.30
2019-04-16T09:14:34.534Z,41.40
2019-04-16T09:17:30.118Z,40.50
2019-04-16T09:20:06.384Z,41.30
2019-04-16T09:22:48.075Z,41.70
2019-04-16T09:25:30.941Z,40.30
2019-04-16T09:28:25.558Z,39.10
2019-04-16T09:31:23.197Z,39.60
2019-04-16T09:34:05.297Z,38.10
2019-04-16T09:36:49.365Z,37.40
2019-04-16T09:39:40.782Z,37.60
2019-04-16T09:42:11.006Z,38.20
2019-04-16T09:44:41.406Z,38.80
2019-04-16T09:47:11.718Z,39.90
2019-04-16T09:49:41.834Z,40.20
2019-04-16T09:52:11.994Z,41.90
2019-04-16T09:54:44.520Z,41.50
2019-04-16T09:57:13.885Z,42.50
2019-04-16T09:59:57.630Z,40.50
2019-04-16T10:02:30.486Z,41.50
2019-04-16T10:05:00.673Z,41.60
2019-04-16T10:07:30.810Z,40.00
2019-04-16T10:10:01.109Z,42.00
2019-04-16T10:12:31.623Z,41.40
2019-04-16T10:15:01.766Z,42.40
2019-04-16T10:17:32.302Z,41.00
2019-04-16T10:20:02.434Z,42.10
2019-04-16T10:22:32.717Z,41.90
2019-04-16T10:25:10.877Z,41.20
2019-04-16T10:27:43.387Z,42.10
2019-04-16T10:30:31.704Z,42.30
2019-04-16T10:33:03.034Z,42.30
2019-04-16T10:35:33.493Z,41.50
2019-04-16T10:38:13.918Z,40.70
2019-04-16T10:40:48.615Z,40.60
2019-04-16T10:43:46.989Z,39.80
2019-04-16T10:46:28.660Z,41.60
2019-04-16T10:49:07.496Z,40.30
2019-04-16T10:51:55.136Z,40.90
2019-04-16T10:54:46.131Z,38.90
2019-04-16T10:57:30.147Z,39.80
2019-04-16T11:00:37.799Z,40.00
2019-04-16T11:03:18.128Z,41.50
2019-04-16T11:06:00.865Z,40.50
2019-04-16T11:08:31.039Z,38.90
2019-04-16T11:11:01.289Z,39.10
2019-04-16T11:13:37.582Z,39.60
2019-04-16T11:16:15.675Z,40.10
2019-04-16T11:18:46.840Z,40.30
2019-04-16T11:21:17.345Z,39.80
2019-04-16T11:23:47.468Z,40.30
2019-04-16T11:26:19.378Z,37.80
2019-04-16T11:28:49.662Z,39.50
2019-04-16T11:31:22.347Z,38.60
2019-04-16T11:33:52.614Z,39.30
2019-04-16T11:36:22.814Z,39.50
2019-04-16T11:38:53.033Z,39.80
2019-04-16T11:41:23.251Z,42.60
2019-04-16T11:43:53.525Z,41.40
2019-04-16T11:46:24.028Z,41.90
2019-04-16T11:48:54.272Z,41.40
2019-04-16T11:51:25.338Z,40.10
2019-04-16T11:53:55.545Z,40.60
2019-04-16T11:56:25.746Z,42.80
2019-04-16T11:58:57.566Z,40.70
2019-04-16T12:02:01.820Z,41.70
2019-04-16T12:04:59.229Z,41.50
2019-04-16T12:07:39.965Z,41.70
2019-04-16T12:10:36.605Z,42.90
2019-04-16T12:13:24.746Z,43.90
2019-04-16T12:16:14.040Z,45.80
2019-04-16T12:19:06.134Z,46.90
2019-04-16T12:21:53.812Z,48.20
2019-04-16T12:24:44.116Z,48.70
2019-04-16T12:27:32.148Z,49.20
2019-04-16T12:30:18.031Z,49.30
2019-04-16T12:32:55.343Z,48.80
2019-04-16T12:35:45.425Z,48.50
2019-04-16T12:38:23.700Z,49.50
2019-04-16T12:41:15.882Z,50.20
2019-04-16T12:44:05.254Z,50.00
2019-04-16T12:47:09.431Z,50.30
2019-04-16T12:49:57.042Z,50.50
2019-04-16T12:52:58.373Z,50.20
2019-04-16T12:55:56.992Z,49.90
2019-04-16T12:58:43.782Z,51.20
2019-04-16T13:01:33.393Z,50.80
2019-04-16T13:04:25.346Z,51.70
2019-04-16T13:07:06.028Z,52.60
2019-04-16T13:09:48.079Z,53.60
2019-04-16T13:12:36.187Z,53.10
2019-04-16T13:15:22.588Z,53.80
2019-04-16T13:18:08.860Z,54.10
2019-04-16T13:21:16.891Z,54.30
2019-04-16T13:23:55.346Z,56.00
2019-04-16T13:26:31.751Z,56.90
2019-04-16T13:29:05.192Z,57.10
2019-04-16T13:31:36.461Z,58.50
2019-04-16T13:34:07.578Z,59.70
2019-04-16T13:36:38.980Z,60.80
2019-04-16T13:39:40.075Z,60.90
2019-04-16T13:42:08.507Z,63.40
2019-04-16T13:44:42.823Z,68.20
2019-04-16T13:47:13.213Z,78.00
2019-04-16T13:50:04.855Z,85.70
2019-04-16T13:52:35.808Z,90.30
2019-04-16T13:55:25.253Z,92.10
2019-04-16T13:58:13.333Z,93.00
2019-04-16T14:00:47.519Z,95.50
2019-04-16T14:03:20.802Z,97.10
2019-04-16T14:05:52.447Z,97.60
2019-04-16T14:08:22.708Z,98.10
2019-04-16T14:10:52.985Z,98.20
2019-04-16T14:13:23.255Z,99.10
2019-04-16T14:15:53.555Z,99.20
2019-04-16T14:18:23.924Z,99.30
2019-04-16T14:20:54.206Z,99.90
2019-04-16T14:23:24.524Z,99.90
2019-04-16T14:25:54.687Z,99.90
2019-04-16T14:28:24.981Z,99.90
2019-04-16T14:30:55.287Z,99.90
2019-04-16T14:33:44.443Z,99.90
2019-04-16T14:36:15.664Z,99.90
2019-04-16T14:38:49.819Z,99.90
2019-04-16T14:41:19.983Z,99.90
2019-04-16T14:43:55.500Z,99.90
2019-04-16T14:46:28.441Z,99.90
2019-04-16T14:48:58.021Z,99.90
2019-04-16T14:51:28.340Z,99.90
2019-04-16T14:54:29.971Z,99.90
2019-04-16T14:57:02.574Z,99.90
2019-04-16T14:59:45.030Z,99.90
2019-04-16T15:02:29.232Z,99.90
2019-04-16T15:05:15.412Z,99.90
2019-04-16T15:08:10.982Z,99.90
2019-04-16T15:11:15.891Z,99.90
2019-04-16T15:14:26.069Z,99.90
2019-04-16T15:17:06.394Z,99.90
2019-04-16T15:19:49.024Z,99.90
2019-04-16T15:22:41.184Z,99.90
2019-04-16T15:25:21.370Z,99.90
2019-04-16T15:28:06.644Z,99.90
2019-04-16T15:31:10.604Z,99.90
2019-04-16T15:33:50.362Z,99.90
2019-04-16T15:36:26.887Z,99.90
2019-04-16T15:39:09.347Z,99.90
2019-04-16T15:42:17.206Z,99.90
2019-04-16T15:45:08.453Z,99.90
2019-04-16T15:47:49.895Z,99.90
2019-04-16T15:50:35.828Z,99.90
2019-04-16T15:53:25.250Z,99.90
2019-04-16T15:56:17.935Z,99.90
2019-04-16T15:59:10.086Z,99.90
2019-04-16T16:02:02.253Z,99.90
2019-04-16T16:04:54.966Z,99.90
2019-04-16T16:07:28.743Z,99.90
2019-04-16T16:10:18.831Z,99.90
2019-04-16T16:12:50.918Z,99.90
2019-04-16T16:15:21.541Z,99.90
2019-04-16T16:17:52.123Z,99.90
2019-04-16T16:20:22.380Z,99.90
2019-04-16T16:22:54.547Z,99.90
2019-04-16T16:25:25.367Z,99.90
2019-04-16T16:27:56.450Z,99.90
2019-04-16T16:30:27.281Z,99.90
2019-04-16T16:32:58.116Z,99.90
2019-04-16T16:35:28.731Z,99.90
2019-04-16T16:37:59.293Z,99.90
2019-04-16T16:40:30.858Z,99.90
2019-04-16T16:43:06.794Z,99.90
2019-04-16T16:45:50.197Z,99.90
2019-04-16T16:48:22.752Z,99.90
2019-04-16T16:50:53.242Z,99.90
2019-04-16T16:53:44.406Z,99.90
2019-04-16T16:56:30.301Z,99.90
2019-04-16T16:59:21.002Z,99.90
2019-04-16T17:02:10.307Z,99.90
2019-04-16T17:04:44.041Z,99.90
2019-04-16T17:07:17.456Z,99.90
2019-04-16T17:09:46.662Z,99.90
2019-04-16T17:12:17.012Z,99.90
2019-04-16T17:14:47.295Z,99.90
2019-04-16T17:17:17.592Z,99.90
2019-04-16T17:20:06.352Z,99.90
2019-04-16T17:22:36.524Z,99.90
2019-04-16T17:25:10.465Z,99.90
2019-04-16T17:27:50.692Z,99.90
2019-04-16T17:30:10.755Z,99.90
2019-04-16T17:32:41.131Z,99.90
2019-04-16T17:35:15.568Z,99.90
2019-04-16T17:37:43.617Z,99.90
2019-04-16T17:40:26.347Z,99.90
2019-04-16T17:43:00.790Z,99.90
2019-04-16T17:45:46.470Z,99.90
2019-04-16T17:48:24.068Z,99.90
2019-04-16T17:51:06.732Z,99.90
2019-04-16T17:54:00.335Z,99.90
2019-04-16T17:56:56.403Z,99.90
2019-04-16T17:59:32.413Z,99.90
2019-04-16T18:02:33.530Z,99.90
2019-04-16T18:05:23.485Z,99.90
2019-04-16T18:08:23.661Z,99.90
2019-04-16T18:11:00.451Z,99.90
2019-04-16T18:13:44.694Z,99.90
2019-04-16T18:16:21.697Z,99.90
2019-04-16T18:19:05.206Z,99.90
2019-04-16T18:21:49.796Z,99.90
2019-04-16T18:24:51.298Z,99.90
2019-04-16T18:27:31.915Z,99.90
2019-04-16T18:30:25.341Z,99.90
2019-04-16T18:33:15.010Z,99.90
2019-04-16T18:35:51.067Z,99.90
2019-04-16T18:38:43.884Z,99.90
2019-04-16T18:41:33.135Z,99.90
2019-04-16T18:44:22.573Z,99.90
2019-04-16T18:47:05.051Z,99.90
2019-04-16T18:49:36.168Z,99.90
2019-04-16T18:52:07.130Z,99.90
2019-04-16T18:54:37.645Z,99.90
2019-04-16T18:57:08.019Z,99.90
2019-04-16T18:59:39.373Z,99.90
2019-04-16T19:02:10.483Z,99.90
2019-04-16T19:04:41.534Z,99.90
2019-04-16T19:07:12.008Z,99.90
2019-04-16T19:09:45.037Z,99.90
2019-04-16T19:12:16.840Z,99.90
2019-04-16T19:14:47.912Z,99.90
2019-04-16T19:17:18.289Z,99.90
2019-04-16T19:19:48.579Z,99.90
2019-04-16T19:22:19.175Z,99.90
2019-04-16T19:24:49.427Z,99.90
2019-04-16T19:27:19.756Z,99.90
2019-04-16T19:29:50.064Z,99.90
2019-04-16T19:32:20.311Z,99.90
2019-04-16T19:34:51.101Z,99.90
2019-04-16T19:37:24.919Z,99.90
2019-04-16T19:39:55.307Z,99.90
2019-04-16T19:42:28.852Z,99.90
2019-04-16T19:45:00.360Z,99.90
2019-04-16T19:47:31.056Z,99.90
2019-04-16T19:50:01.484Z,99.90
2019-04-16T19:52:31.767Z,99.90
2019-04-16T19:55:02.217Z,99.90
2019-04-16T19:57:33.088Z,99.90
2019-04-16T20:00:03.511Z,99.90
2019-04-16T20:02:35.715Z,99.90
2019-04-16T20:05:07.641Z,99.90
2019-04-16T20:07:38.324Z,99.90
2019-04-16T20:10:08.787Z,99.90
2019-04-16T20:12:39.182Z,99.90
2019-04-16T20:15:09.854Z,99.90
2019-04-16T20:17:40.323Z,99.90
2019-04-16T20:20:10.836Z,99.90
2019-04-16T20:22:41.263Z,99.90
2019-04-16T20:25:11.698Z,99.90
2019-04-16T20:27:42.100Z,99.90
2019-04-16T20:30:14.280Z,99.90
2019-04-16T20:32:44.567Z,99.90
2019-04-16T20:35:17.738Z,99.90
2019-04-16T20:37:47.097Z,99.90
2019-04-16T20:40:17.835Z,99.90
2019-04-16T20:42:49.099Z,99.90
2019-04-16T20:45:19.459Z,99.90
2019-04-16T20:47:49.874Z,99.90
2019-04-16T20:50:20.793Z,99.90
2019-04-16T20:52:51.766Z,99.90
2019-04-16T20:55:22.109Z,99.90
2019-04-16T20:57:55.313Z,99.90
2019-04-16T21:00:32.097Z,99.90
2019-04-16T21:03:03.618Z,99.90
2019-04-16T21:05:35.785Z,99.90
2019-04-16T21:08:06.022Z,99.90
2019-04-16T21:10:37.278Z,99.90
2019-04-16T21:13:07.969Z,99.90
2019-04-16T21:15:38.246Z,99.90
2019-04-16T21:18:11.880Z,99.90
2019-04-16T21:20:40.242Z,99.90
2019-04-16T21:23:10.508Z,99.90
2019-04-16T21:25:42.852Z,99.90
2019-04-16T21:28:31.514Z,99.90
2019-04-16T21:31:06.567Z,99.90
2019-04-16T21:34:04.524Z,99.90
2019-04-16T21:36:48.736Z,99.90
2019-04-16T21:39:23.150Z,99.90
2019-04-16T21:41:53.406Z,99.90
2019-04-16T21:44:23.720Z,99.90
2019-04-16T21:46:58.159Z,99.90
2019-04-16T21:49:38.597Z,99.90
2019-04-16T21:52:09.456Z,99.90
2019-04-16T21:54:40.093Z,99.90
2019-04-16T21:57:13.542Z,99.90
2019-04-16T21:59:42.291Z,99.90
2019-04-16T22:02:22.074Z,99.90
2019-04-16T22:04:52.309Z,99.90
2019-04-16T22:07:24.622Z,99.90
2019-04-16T22:09:55.142Z,99.70
2019-04-16T22:12:25.302Z,99.50
2019-04-16T22:14:56.003Z,99.90
2019-04-16T22:17:26.226Z,99.90
2019-04-16T22:20:01.325Z,99.90
2019-04-16T22:22:28.434Z,99.90
2019-04-16T22:24:59.818Z,99.90
2019-04-16T22:27:30.073Z,99.90
2019-04-16T22:30:00.374Z,99.90
2019-04-16T22:32:31.354Z,99.90
2019-04-16T22:35:02.323Z,99.90
2019-04-16T22:37:32.532Z,99.90
2019-04-16T22:40:13.961Z,99.90
2019-04-16T22:43:15.107Z,99.90
2019-04-16T22:45:53.142Z,99.90
2019-04-16T22:48:23.338Z,99.90
2019-04-16T22:50:53.553Z,99.90
2019-04-16T22:53:23.655Z,99.90
2019-04-16T22:55:56.667Z,99.90
2019-04-16T22:58:27.846Z,99.90
2019-04-16T23:01:02.948Z,99.90
2019-04-16T23:03:33.101Z,99.90
2019-04-16T23:06:05.521Z,99.90
2019-04-16T23:08:35.182Z,99.90
2019-04-16T23:11:05.397Z,99.90
2019-04-16T23:13:35.641Z,99.90
2019-04-16T23:16:05.820Z,99.90
2019-04-16T23:18:35.986Z,99.90
2019-04-16T23:21:10.120Z,99.90
2019-04-16T23:23:38.093Z,99.90
2019-04-16T23:26:08.287Z,99.90
2019-04-16T23:28:39.789Z,99.90
2019-04-16T23:31:10.854Z,99.90
2019-04-16T23:33:41.094Z,99.90
2019-04-16T23:36:15.370Z,99.90
2019-04-16T23:38:43.073Z,99.90
2019-04-16T23:41:16.707Z,99.90
2019-04-16T23:44:05.126Z,99.90
2019-04-16T23:46:56.555Z,99.90
2019-04-16T23:49:45.733Z,99.90
2019-04-16T23:52:43.950Z,99.90
2019-04-16T23:55:33.199Z,99.90
2019-04-16T23:58:13.438Z,99.90
